Time;durP1;ratioP1;P1;durP2;ratioP2;P2;SDS_P1;SDS_P2;PMS_P1;PMS_P2;Temp;Humidity;BMP_temperature;BMP_pressure;BME280_temperature;BME280_humidity;BME280_pressure;Samples;Min_cycle;Max_cycle;Signal;HPM_P1;HPM_P2
2021/08/21 00:02:15;;;;;;;6.00;3.33;;;18.10;99.70;;;;;;5113239;28;20134;-80
2021/08/21 00:04:42;;;;;;;7.40;3.72;;;18.10;99.60;;;;;;5112964;28;20479;-80
2021/08/21 00:07:09;;;;;;;5.30;3.25;;;18.10;99.60;;;;;;5112644;28;20123;-81
2021/08/21 00:09:38;;;;;;;6.47;3.28;;;18.00;99.60;;;;;;5115326;28;20040;-80
2021/08/21 00:12:06;;;;;;;6.40;3.58;;;18.10;99.50;;;;;;5116790;28;20548;-79
2021/08/21 00:14:35;;;;;;;5.65;3.55;;;18.00;99.40;;;;;;5116538;28;20549;-79
2021/08/21 00:17:04;;;;;;;6.35;3.30;;;18.00;99.60;;;;;;5116860;28;20139;-78
2021/08/21 00:19:31;;;;;;;8.25;3.90;;;17.90;99.70;;;;;;5116537;28;20051;-80
2021/08/21 00:21:58;;;;;;;5.85;3.17;;;17.90;99.50;;;;;;5116672;28;20094;-78
2021/08/21 00:24:25;;;;;;;6.43;3.33;;;17.90;99.60;;;;;;5116198;28;20477;-79
2021/08/21 00:26:52;;;;;;;4.90;3.33;;;17.90;99.30;;;;;;5116454;28;20139;-79
2021/08/21 00:29:19;;;;;;;5.38;3.25;;;17.80;99.40;;;;;;5116747;28;20139;-79
2021/08/21 00:31:48;;;;;;;6.25;3.20;;;17.80;99.50;;;;;;5107472;28;20048;-78
2021/08/21 00:34:15;;;;;;;5.72;3.10;;;17.80;99.70;;;;;;5113988;28;20127;-80
2021/08/21 00:36:42;;;;;;;5.32;3.25;;;17.80;99.70;;;;;;5116213;28;20086;-79
2021/08/21 00:39:09;;;;;;;5.60;3.35;;;17.80;99.90;;;;;;5115953;28;20119;-80
2021/08/21 00:41:36;;;;;;;10.55;4.18;;;17.80;99.90;;;;;;5115914;28;20128;-78
2021/08/21 00:44:06;;;;;;;5.65;3.63;;;17.80;99.90;;;;;;5116409;28;20079;-78
2021/08/21 00:46:33;;;;;;;5.25;3.22;;;17.80;99.90;;;;;;5095921;28;20409;-80
2021/08/21 00:49:02;;;;;;;5.15;3.28;;;17.80;99.90;;;;;;5095690;28;20492;-78
2021/08/21 00:51:30;;;;;;;5.78;3.47;;;17.70;99.90;;;;;;5095711;28;20131;-79
2021/08/21 00:53:57;;;;;;;4.97;3.40;;;17.80;99.90;;;;;;5102265;28;20130;-80
2021/08/21 00:56:24;;;;;;;6.35;3.70;;;17.70;99.90;;;;;;5115840;28;20460;-79
2021/08/21 00:58:51;;;;;;;5.72;3.85;;;17.70;99.90;;;;;;5115706;28;20055;-79
2021/08/21 01:01:20;;;;;;;7.03;3.95;;;17.60;99.80;;;;;;5115773;28;20126;-77
2021/08/21 01:03:49;;;;;;;5.43;3.15;;;17.60;99.90;;;;;;5115688;28;20433;-79
2021/08/21 01:06:17;;;;;;;7.53;3.47;;;17.50;99.90;;;;;;5115725;28;20504;-78
2021/08/21 01:08:44;;;;;;;6.65;3.60;;;17.50;99.90;;;;;;5115489;28;20235;-79
2021/08/21 01:11:11;;;;;;;6.65;3.30;;;17.50;99.90;;;;;;5115964;28;20082;-79
2021/08/21 01:13:39;;;;;;;5.82;3.50;;;17.40;99.90;;;;;;5115297;28;20039;-77
2021/08/21 01:16:06;;;;;;;5.85;3.42;;;17.40;99.90;;;;;;5115460;28;20126;-78
2021/08/21 01:18:35;;;;;;;7.90;3.72;;;17.40;99.90;;;;;;5115530;28;20515;-78
2021/08/21 01:21:02;;;;;;;6.28;3.50;;;17.30;99.90;;;;;;5115074;28;20564;-80
2021/08/21 01:23:31;;;;;;;6.40;3.50;;;17.30;99.90;;;;;;5115006;28;20044;-80
2021/08/21 01:25:58;;;;;;;5.80;3.70;;;17.20;99.90;;;;;;5115358;28;20152;-81
2021/08/21 01:28:26;;;;;;;6.38;3.65;;;17.10;99.90;;;;;;5115022;28;20127;-80
2021/08/21 01:30:53;;;;;;;7.97;3.70;;;17.00;99.90;;;;;;5115350;28;20130;-81
2021/08/21 01:33:20;;;;;;;5.72;3.53;;;16.90;99.90;;;;;;5115075;28;20459;-81
2021/08/21 01:35:53;;;;;;;5.72;3.47;;;16.90;99.90;;;;;;5114837;28;20122;-80
2021/08/21 01:38:20;;;;;;;7.50;3.50;;;16.80;99.90;;;;;;5115381;28;20067;-81
2021/08/21 01:40:51;;;;;;;6.15;3.50;;;16.70;99.90;;;;;;5115160;28;20122;-79
2021/08/21 01:43:18;;;;;;;5.90;3.88;;;16.70;99.90;;;;;;5115020;28;20048;-79
2021/08/21 01:45:47;;;;;;;7.05;4.18;;;16.70;99.90;;;;;;5114163;28;20138;-80
2021/08/21 01:48:15;;;;;;;8.05;4.25;;;16.70;99.90;;;;;;5112654;28;20126;-80
2021/08/21 01:50:42;;;;;;;5.90;3.80;;;16.60;99.90;;;;;;5115019;28;20101;-81
2021/08/21 01:53:12;;;;;;;6.20;3.50;;;16.60;99.90;;;;;;5114922;28;20130;-79
2021/08/21 01:55:40;;;;;;;9.18;4.03;;;16.60;99.90;;;;;;5114661;28;20126;-79
2021/08/21 01:58:07;;;;;;;6.85;4.20;;;16.60;99.90;;;;;;5114534;28;20043;-80
2021/08/21 02:00:36;;;;;;;7.57;3.58;;;16.60;99.90;;;;;;5114693;28;20146;-80
2021/08/21 02:03:05;;;;;;;6.35;3.80;;;16.50;99.90;;;;;;5114875;28;20078;-80
2021/08/21 02:05:33;;;;;;;7.35;4.00;;;16.50;99.90;;;;;;5114457;28;20079;-78
2021/08/21 02:08:00;;;;;;;7.20;3.80;;;16.50;99.90;;;;;;5114748;28;20104;-79
2021/08/21 02:10:27;;;;;;;5.40;3.40;;;16.60;99.90;;;;;;5115146;28;20127;-81
2021/08/21 02:12:54;;;;;;;6.15;3.90;;;16.60;99.90;;;;;;5117948;28;20051;-80
2021/08/21 02:15:21;;;;;;;7.57;3.85;;;16.70;99.90;;;;;;5117700;28;20134;-81
2021/08/21 02:17:48;;;;;;;6.18;3.72;;;16.70;99.90;;;;;;5118306;28;20130;-80
2021/08/21 02:20:17;;;;;;;5.68;3.67;;;16.70;99.90;;;;;;5115287;28;20475;-81
2021/08/21 02:22:46;;;;;;;6.85;3.50;;;16.70;99.90;;;;;;5115523;28;20127;-80
2021/08/21 02:25:16;;;;;;;7.00;3.60;;;16.70;99.90;;;;;;5116106;28;20481;-78
2021/08/21 02:27:54;;;;;;;6.47;3.60;;;16.70;99.90;;;;;;5116360;28;20139;-79
2021/08/21 02:30:21;;;;;;;6.68;3.92;;;16.70;99.90;;;;;;5114600;28;20047;-78
2021/08/21 02:32:49;;;;;;;5.20;3.50;;;16.70;99.90;;;;;;5098499;28;20561;-79
2021/08/21 02:35:17;;;;;;;7.95;4.00;;;16.70;99.90;;;;;;5112034;28;20130;-80
2021/08/21 02:37:44;;;;;;;6.88;3.38;;;16.70;99.90;;;;;;5114306;28;20135;-81
2021/08/21 02:40:14;;;;;;;5.72;3.42;;;16.70;99.90;;;;;;5113889;28;20126;-79
2021/08/21 02:42:41;;;;;;;4.93;3.45;;;16.70;99.90;;;;;;5114127;28;20127;-80
2021/08/21 02:45:10;;;;;;;6.63;3.70;;;16.70;99.90;;;;;;5113606;28;20143;-78
2021/08/21 02:47:38;;;;;;;5.85;3.83;;;16.70;99.90;;;;;;5113678;28;20074;-78
2021/08/21 02:50:06;;;;;;;5.75;3.67;;;16.70;99.90;;;;;;5113963;28;20130;-80
2021/08/21 02:52:34;;;;;;;5.95;3.42;;;16.70;99.90;;;;;;5113549;28;20122;-80
2021/08/21 02:55:01;;;;;;;5.90;3.50;;;16.60;99.90;;;;;;5113775;28;20560;-79
2021/08/21 02:57:29;;;;;;;6.10;3.50;;;16.60;99.90;;;;;;5114422;28;20047;-81
2021/08/21 02:59:56;;;;;;;5.18;3.30;;;16.60;99.90;;;;;;5114706;28;20726;-78
2021/08/21 03:02:23;;;;;;;5.05;3.30;;;16.60;99.90;;;;;;5112192;28;20126;-80
2021/08/21 03:04:50;;;;;;;6.70;3.58;;;16.60;99.90;;;;;;5112109;28;20044;-79
2021/08/21 03:07:17;;;;;;;5.05;3.40;;;16.60;99.90;;;;;;5115950;28;20044;-81
2021/08/21 03:09:46;;;;;;;5.85;3.50;;;16.60;99.90;;;;;;5109894;28;20054;-79
2021/08/21 03:12:13;;;;;;;6.40;3.45;;;16.60;99.90;;;;;;5110082;28;20047;-79
2021/08/21 03:14:40;;;;;;;7.65;3.55;;;16.60;99.90;;;;;;5109803;28;20050;-78
2021/08/21 03:17:10;;;;;;;6.50;3.78;;;16.60;99.90;;;;;;5109991;28;20564;-79
2021/08/21 03:19:37;;;;;;;6.22;3.70;;;16.60;99.90;;;;;;5109940;28;20052;-79
2021/08/21 03:22:05;;;;;;;6.75;4.05;;;16.60;99.90;;;;;;5109760;28;20044;-80
2021/08/21 03:24:32;;;;;;;5.45;3.40;;;16.50;99.90;;;;;;5110057;28;20165;-79
2021/08/21 03:27:00;;;;;;;5.55;3.22;;;16.50;99.90;;;;;;5110092;28;20159;-81
2021/08/21 03:29:27;;;;;;;5.32;3.35;;;16.50;99.90;;;;;;5109994;28;20048;-80
2021/08/21 03:31:54;;;;;;;6.07;3.42;;;16.50;99.90;;;;;;5109559;28;20043;-80
2021/08/21 03:34:22;;;;;;;6.70;3.45;;;16.50;99.90;;;;;;5109907;28;20071;-81
2021/08/21 03:36:50;;;;;;;5.82;3.63;;;16.50;99.90;;;;;;5109693;28;20215;-79
2021/08/21 03:39:17;;;;;;;6.18;3.45;;;16.50;99.90;;;;;;5110021;28;20063;-79
2021/08/21 03:41:44;;;;;;;5.53;3.33;;;16.50;99.90;;;;;;5113740;28;20044;-80
2021/08/21 03:44:12;;;;;;;5.00;3.40;;;16.50;99.90;;;;;;5113599;28;20159;-79
2021/08/21 03:46:40;;;;;;;6.40;3.30;;;16.50;99.90;;;;;;5098985;28;20043;-79
2021/08/21 03:49:07;;;;;;;5.75;3.17;;;16.40;99.90;;;;;;5113814;28;20083;-80
2021/08/21 03:51:34;;;;;;;5.15;3.45;;;16.40;99.90;;;;;;5113340;28;20493;-79
2021/08/21 03:54:01;;;;;;;6.20;3.88;;;16.40;99.90;;;;;;5113556;28;20082;-81
2021/08/21 03:56:28;;;;;;;6.03;3.72;;;16.40;99.90;;;;;;5113665;28;20127;-80
2021/08/21 03:58:55;;;;;;;5.40;3.70;;;16.40;99.90;;;;;;5113765;28;20446;-80
2021/08/21 04:01:24;;;;;;;5.53;3.50;;;16.30;99.90;;;;;;5114049;28;20122;-81
2021/08/21 04:03:51;;;;;;;5.80;3.63;;;16.30;99.90;;;;;;5117175;28;20139;-80
2021/08/21 04:06:19;;;;;;;6.53;3.70;;;16.20;99.90;;;;;;5116873;28;20065;-79
2021/08/21 04:08:46;;;;;;;5.28;3.33;;;16.20;99.90;;;;;;5117224;28;20051;-81
2021/08/21 04:11:13;;;;;;;6.00;3.42;;;16.20;99.90;;;;;;5116601;28;20122;-78
2021/08/21 04:13:40;;;;;;;7.68;3.92;;;16.10;99.90;;;;;;5116030;28;20127;-82
2021/08/21 04:16:07;;;;;;;6.13;3.58;;;16.10;99.90;;;;;;5116035;28;20540;-79
2021/08/21 04:18:36;;;;;;;6.10;3.70;;;16.10;99.90;;;;;;5116337;28;20139;-78
2021/08/21 04:21:04;;;;;;;8.25;4.03;;;16.10;99.90;;;;;;5116556;28;20089;-81
2021/08/21 04:23:31;;;;;;;8.25;4.15;;;16.00;99.90;;;;;;5117919;28;20126;-78
2021/08/21 04:26:00;;;;;;;7.20;4.07;;;16.00;99.90;;;;;;5119343;28;20458;-80
2021/08/21 04:28:28;;;;;;;7.38;4.10;;;16.00;99.90;;;;;;5116519;28;20050;-80
2021/08/21 04:30:56;;;;;;;5.60;3.50;;;15.90;99.90;;;;;;5116229;28;20096;-79
2021/08/21 04:33:23;;;;;;;5.95;3.47;;;15.90;99.90;;;;;;5116658;28;20130;-80
2021/08/21 04:35:52;;;;;;;5.68;3.67;;;15.90;99.90;;;;;;5116547;28;20047;-79
2021/08/21 04:38:20;;;;;;;5.53;3.50;;;15.90;99.90;;;;;;5113046;27;20075;-80
2021/08/21 04:40:49;;;;;;;6.53;4.10;;;15.90;99.90;;;;;;5116337;28;20042;-79
2021/08/21 04:43:17;;;;;;;8.50;3.88;;;16.00;99.90;;;;;;5116005;28;20054;-78
2021/08/21 04:45:44;;;;;;;5.20;3.53;;;15.90;99.90;;;;;;5116023;28;20071;-81
2021/08/21 04:48:12;;;;;;;7.28;4.10;;;16.00;99.90;;;;;;5098855;22;20434;-80
2021/08/21 04:50:39;;;;;;;6.18;3.65;;;16.00;99.90;;;;;;5054506;28;20548;-79
2021/08/21 04:53:08;;;;;;;6.07;3.67;;;16.00;99.90;;;;;;5054561;28;20434;-80
2021/08/21 04:55:35;;;;;;;5.28;3.47;;;15.90;99.90;;;;;;5050668;28;20132;-78
2021/08/21 04:58:03;;;;;;;5.80;3.85;;;16.00;99.90;;;;;;5054032;28;20132;-80
2021/08/21 05:00:30;;;;;;;6.38;4.10;;;15.90;99.90;;;;;;5055123;28;20123;-81
2021/08/21 05:02:58;;;;;;;5.68;3.50;;;15.80;99.90;;;;;;5055107;28;20124;-78
2021/08/21 05:05:26;;;;;;;7.82;3.75;;;15.90;99.90;;;;;;5054734;28;20049;-81
2021/08/21 05:07:54;;;;;;;5.10;3.50;;;15.90;99.90;;;;;;5053900;28;20156;-78
2021/08/21 05:10:22;;;;;;;5.78;3.70;;;15.90;99.90;;;;;;5054889;28;20131;-78
2021/08/21 05:12:49;;;;;;;6.03;4.07;;;16.00;99.90;;;;;;5073622;22;21020;-80
2021/08/21 05:15:16;;;;;;;6.63;4.03;;;16.00;99.90;;;;;;5084048;28;20147;-82
2021/08/21 05:25:50;;;;;;;7.35;3.85;;;16.20;99.90;;;;;;5644208;22;21892;-83
2021/08/21 05:28:19;;;;;;;5.70;3.60;;;16.30;99.90;;;;;;5005975;28;20078;-79
2021/08/21 05:30:48;;;;;;;6.10;3.90;;;16.30;99.90;;;;;;5026145;23;20461;-79
2021/08/21 05:33:17;;;;;;;7.43;4.10;;;16.40;99.90;;;;;;5033909;28;20046;-79
2021/08/21 05:35:45;;;;;;;6.38;4.22;;;16.40;99.90;;;;;;5032066;28;20037;-79
2021/08/21 05:38:13;;;;;;;5.43;3.70;;;16.40;99.90;;;;;;5033844;28;20128;-80
2021/08/21 05:40:40;;;;;;;6.57;3.50;;;16.50;99.90;;;;;;5034340;28;20045;-79
2021/08/21 05:43:10;;;;;;;5.78;3.90;;;16.50;99.90;;;;;;5034201;28;20398;-79
2021/08/21 05:45:37;;;;;;;6.10;4.03;;;16.50;99.90;;;;;;5033469;28;20099;-78
2021/08/21 05:48:05;;;;;;;5.78;3.38;;;16.60;99.90;;;;;;5033565;28;20414;-77
2021/08/21 05:50:32;;;;;;;6.30;4.30;;;16.60;99.90;;;;;;5034205;28;20482;-78
2021/08/21 05:52:59;;;;;;;10.13;4.97;;;16.70;99.90;;;;;;5034346;28;20569;-79
2021/08/21 05:55:26;;;;;;;8.38;4.22;;;16.70;99.90;;;;;;5034433;28;20045;-80
2021/08/21 05:57:54;;;;;;;6.88;4.47;;;16.70;99.90;;;;;;5034022;28;20058;-79
2021/08/21 06:00:24;;;;;;;7.00;4.15;;;16.70;99.90;;;;;;5034131;28;20041;-79
2021/08/21 06:02:52;;;;;;;7.38;4.40;;;16.70;99.90;;;;;;5033156;28;20048;-78
2021/08/21 06:05:19;;;;;;;7.78;4.68;;;16.70;99.90;;;;;;5033894;28;20128;-79
2021/08/21 06:07:46;;;;;;;5.90;3.83;;;16.80;99.90;;;;;;5032654;28;20060;-79
2021/08/21 06:10:13;;;;;;;6.57;4.10;;;16.80;99.90;;;;;;5033191;28;20513;-80
2021/08/21 06:12:40;;;;;;;6.13;3.90;;;16.90;99.90;;;;;;5033752;28;20474;-80
2021/08/21 06:15:08;;;;;;;6.78;4.10;;;16.90;99.90;;;;;;5033812;28;20045;-79
2021/08/21 06:17:37;;;;;;;6.90;4.07;;;16.90;99.90;;;;;;5033309;28;20048;-78
2021/08/21 06:20:05;;;;;;;5.80;4.10;;;16.90;99.90;;;;;;5032257;28;20080;-78
2021/08/21 06:22:33;;;;;;;6.95;4.05;;;17.00;99.90;;;;;;5014064;28;20133;-78
2021/08/21 06:25:00;;;;;;;6.15;4.15;;;17.00;99.90;;;;;;5014006;28;20050;-80
2021/08/21 06:27:27;;;;;;;5.07;3.60;;;17.10;99.90;;;;;;5013526;28;20060;-77
2021/08/21 06:29:54;;;;;;;7.00;4.25;;;17.10;99.90;;;;;;5014066;28;20092;-79
2021/08/21 06:32:21;;;;;;;5.22;3.92;;;17.20;99.90;;;;;;5014334;28;20077;-78
2021/08/21 06:34:49;;;;;;;6.82;4.47;;;17.20;99.90;;;;;;5013969;28;20392;-76
2021/08/21 06:37:16;;;;;;;7.25;4.00;;;17.20;99.90;;;;;;5014116;28;20048;-79
2021/08/21 06:39:43;;;;;;;6.25;3.97;;;17.30;99.90;;;;;;5014058;28;20141;-80
2021/08/21 06:42:10;;;;;;;6.82;4.22;;;17.30;99.90;;;;;;5013839;28;20052;-76
2021/08/21 06:44:37;;;;;;;6.50;3.70;;;17.30;99.90;;;;;;5013755;28;20050;-78
2021/08/21 06:47:05;;;;;;;7.00;4.45;;;17.40;99.90;;;;;;5013538;28;20137;-80
2021/08/21 06:49:32;;;;;;;6.65;4.25;;;17.40;99.90;;;;;;5013528;28;20183;-79
2021/08/21 06:52:00;;;;;;;6.38;4.03;;;17.40;99.90;;;;;;5013607;28;20042;-79
2021/08/21 06:54:27;;;;;;;7.38;4.18;;;17.50;99.90;;;;;;5013895;28;20050;-79
2021/08/21 06:56:54;;;;;;;6.13;4.13;;;17.50;99.90;;;;;;5013610;28;20054;-79
2021/08/21 06:59:22;;;;;;;6.63;4.45;;;17.60;99.90;;;;;;5013588;28;20415;-79
2021/08/21 07:01:49;;;;;;;6.63;4.50;;;17.60;99.90;;;;;;5013364;28;20064;-79
2021/08/21 07:04:16;;;;;;;7.85;4.88;;;17.60;99.90;;;;;;5013415;28;20046;-80
2021/08/21 07:06:43;;;;;;;7.65;4.80;;;17.60;99.90;;;;;;5013408;28;20075;-79
2021/08/21 07:09:12;;;;;;;7.13;4.80;;;17.60;99.90;;;;;;5013282;28;20077;-79
2021/08/21 07:11:39;;;;;;;6.03;4.13;;;17.60;99.90;;;;;;5013403;28;20132;-78
2021/08/21 07:14:06;;;;;;;6.55;4.53;;;17.70;99.90;;;;;;5013220;28;20125;-78
2021/08/21 07:16:33;;;;;;;7.65;5.30;;;17.70;99.90;;;;;;5013472;28;20128;-78
2021/08/21 07:19:01;;;;;;;8.63;5.10;;;17.70;99.90;;;;;;5013012;28;20049;-78
2021/08/21 07:21:29;;;;;;;8.05;4.80;;;17.70;99.90;;;;;;5013344;28;20068;-77
2021/08/21 07:23:56;;;;;;;7.05;4.82;;;17.70;99.90;;;;;;5013275;28;20129;-79
2021/08/21 07:26:24;;;;;;;9.35;5.47;;;17.70;99.90;;;;;;5013197;28;20497;-77
2021/08/21 07:28:51;;;;;;;8.60;5.32;;;17.70;99.90;;;;;;5013187;28;20549;-79
2021/08/21 07:31:19;;;;;;;6.55;4.53;;;17.80;99.90;;;;;;5012985;28;20085;-79
2021/08/21 07:33:46;;;;;;;7.30;5.05;;;17.80;99.90;;;;;;5013186;28;20482;-78
2021/08/21 07:36:13;;;;;;;9.45;4.78;;;17.80;99.90;;;;;;5013082;28;20057;-78
2021/08/21 07:38:40;;;;;;;6.68;4.78;;;17.80;99.90;;;;;;5013038;28;20049;-75
2021/08/21 07:41:07;;;;;;;7.68;4.50;;;17.90;99.90;;;;;;5013223;28;20060;-75
2021/08/21 07:43:35;;;;;;;6.78;4.47;;;18.00;99.90;;;;;;5012969;28;20056;-76
2021/08/21 07:46:02;;;;;;;5.82;4.13;;;18.10;99.90;;;;;;5013096;28;20048;-78
2021/08/21 07:48:29;;;;;;;6.57;4.88;;;18.10;99.90;;;;;;5013115;28;20060;-76
2021/08/21 07:50:56;;;;;;;6.85;4.53;;;18.20;99.90;;;;;;5013233;28;20124;-77
2021/08/21 07:53:23;;;;;;;6.47;4.68;;;18.30;99.90;;;;;;5012972;28;20050;-77
2021/08/21 07:55:50;;;;;;;7.82;4.70;;;18.30;99.90;;;;;;5012822;28;20501;-78
2021/08/21 07:58:17;;;;;;;7.40;4.95;;;18.40;99.90;;;;;;5012996;28;20048;-76
2021/08/21 08:00:46;;;;;;;7.32;4.30;;;18.40;99.90;;;;;;5027052;28;20167;-77
2021/08/21 08:03:14;;;;;;;6.20;3.90;;;18.50;99.90;;;;;;5032263;28;20125;-78
2021/08/21 08:05:42;;;;;;;5.88;3.80;;;18.50;99.90;;;;;;5032898;28;20049;-75
2021/08/21 08:08:09;;;;;;;6.28;3.78;;;18.60;99.90;;;;;;5032823;28;20059;-78
2021/08/21 08:10:37;;;;;;;6.15;3.60;;;18.70;99.90;;;;;;5032250;28;20049;-77
2021/08/21 08:13:04;;;;;;;4.93;3.42;;;18.80;99.90;;;;;;5033043;28;20045;-81
2021/08/21 08:15:31;;;;;;;6.03;3.78;;;18.80;99.90;;;;;;5031442;28;20047;-76
2021/08/21 08:18:00;;;;;;;6.75;4.00;;;19.00;99.90;;;;;;5032487;28;20051;-78
2021/08/21 08:20:27;;;;;;;5.05;3.50;;;19.10;99.90;;;;;;5032412;28;20056;-77
2021/08/21 08:22:54;;;;;;;6.25;3.63;;;19.30;99.90;;;;;;5032557;28;20053;-76
2021/08/21 08:25:22;;;;;;;5.75;3.60;;;19.30;99.90;;;;;;5031403;28;20184;-77
2021/08/21 08:27:49;;;;;;;6.43;3.53;;;19.50;99.90;;;;;;5032165;28;20137;-75
2021/08/21 08:30:17;;;;;;;5.90;3.72;;;19.60;99.90;;;;;;5034217;28;20058;-79
2021/08/21 08:32:44;;;;;;;6.88;3.80;;;19.60;99.90;;;;;;5030232;28;20042;-80
2021/08/21 08:35:13;;;;;;;5.78;3.53;;;19.70;99.90;;;;;;5036149;28;20128;-78
2021/08/21 08:37:41;;;;;;;7.18;4.10;;;19.80;99.90;;;;;;5036937;28;20088;-77
2021/08/21 08:40:11;;;;;;;6.70;4.30;;;19.80;99.70;;;;;;5037706;28;20068;-80
2021/08/21 08:42:41;;;;;;;6.18;4.05;;;19.80;99.40;;;;;;5039713;28;20084;-78
2021/08/21 08:45:09;;;;;;;5.50;3.60;;;19.90;99.40;;;;;;5045213;28;20042;-75
2021/08/21 08:47:37;;;;;;;5.55;3.55;;;20.00;99.40;;;;;;5035879;28;20049;-80
2021/08/21 08:50:06;;;;;;;6.10;3.35;;;20.00;99.40;;;;;;5035879;28;20076;-79
2021/08/21 08:52:35;;;;;;;5.85;3.63;;;20.00;99.40;;;;;;5041341;28;20129;-79
2021/08/21 08:55:03;;;;;;;5.50;3.20;;;20.10;99.40;;;;;;5038697;28;20341;-76
2021/08/21 08:57:38;;;;;;;4.72;3.20;;;20.20;99.40;;;;;;5037279;28;20132;-78
2021/08/21 09:00:09;;;;;;;4.85;3.22;;;20.30;99.30;;;;;;5037797;28;20085;-80
2021/08/21 09:02:38;;;;;;;6.05;3.63;;;20.40;99.20;;;;;;5035915;28;20053;-80
2021/08/21 09:05:09;;;;;;;6.70;3.50;;;20.40;99.00;;;;;;5035819;28;20049;-79
2021/08/21 09:07:46;;;;;;;6.72;3.80;;;20.50;98.90;;;;;;5035469;28;20056;-80
2021/08/21 09:10:20;;;;;;;5.63;3.47;;;20.60;98.80;;;;;;5035372;28;20046;-78
2021/08/21 09:12:49;;;;;;;5.95;3.83;;;20.60;98.70;;;;;;5035323;28;20049;-78
2021/08/21 09:15:25;;;;;;;5.25;3.28;;;20.70;98.60;;;;;;5035050;28;20080;-80
2021/08/21 09:18:08;;;;;;;5.78;3.28;;;20.70;98.60;;;;;;5034127;28;20124;-80
2021/08/21 09:20:52;;;;;;;5.10;2.83;;;20.80;98.70;;;;;;5034494;28;20111;-80
2021/08/21 09:23:26;;;;;;;4.80;3.05;;;20.90;98.70;;;;;;5034410;28;20076;-79
2021/08/21 09:25:56;;;;;;;5.18;3.13;;;21.00;98.60;;;;;;5022835;28;20121;-75
2021/08/21 09:28:25;;;;;;;5.28;3.30;;;21.10;98.40;;;;;;5034040;28;20506;-78
2021/08/21 09:31:05;;;;;;;4.68;2.83;;;21.20;98.30;;;;;;5034097;28;20067;-79
2021/08/21 09:33:33;;;;;;;4.88;2.90;;;21.30;98.30;;;;;;5034707;28;20056;-77
2021/08/21 09:36:00;;;;;;;4.75;2.78;;;21.50;98.20;;;;;;5034267;28;20059;-80
2021/08/21 09:38:31;;;;;;;6.40;2.92;;;21.60;98.00;;;;;;5034172;28;20041;-78
2021/08/21 09:41:04;;;;;;;5.28;3.55;;;21.70;98.00;;;;;;5034400;28;20045;-79
2021/08/21 09:43:34;;;;;;;6.93;4.03;;;21.80;97.50;;;;;;5034333;28;20045;-77
2021/08/21 09:46:17;;;;;;;5.43;3.40;;;21.90;97.20;;;;;;5033380;28;20055;-80
2021/08/21 09:49:02;;;;;;;6.05;3.72;;;22.00;97.10;;;;;;5020736;28;20056;-78
2021/08/21 09:51:41;;;;;;;5.47;3.08;;;22.00;96.90;;;;;;5034556;28;20088;-79
2021/08/21 09:54:13;;;;;;;4.60;3.00;;;22.10;96.80;;;;;;5033973;28;20231;-79
2021/08/21 09:56:43;;;;;;;4.30;2.95;;;22.20;96.70;;;;;;5033938;28;20041;-78
2021/08/21 09:59:11;;;;;;;4.43;2.88;;;22.30;96.70;;;;;;5033307;28;20042;-79
2021/08/21 10:01:38;;;;;;;5.75;2.60;;;22.40;96.60;;;;;;5034134;28;20049;-79
2021/08/21 10:04:06;;;;;;;5.40;2.83;;;22.40;96.50;;;;;;5033953;28;20055;-79
2021/08/21 10:06:33;;;;;;;3.95;2.63;;;22.50;96.20;;;;;;5033975;28;20037;-79
2021/08/21 10:09:04;;;;;;;5.13;2.92;;;22.60;96.20;;;;;;5033438;28;20049;-79
2021/08/21 10:11:33;;;;;;;4.78;2.88;;;22.70;96.10;;;;;;5033221;28;20053;-79
2021/08/21 10:14:01;;;;;;;5.55;3.33;;;22.70;95.90;;;;;;5033625;28;20038;-80
2021/08/21 10:16:30;;;;;;;5.50;3.13;;;22.80;95.70;;;;;;5033247;28;20067;-78
2021/08/21 10:18:58;;;;;;;4.88;2.90;;;22.90;95.50;;;;;;5032389;28;20049;-80
2021/08/21 10:21:26;;;;;;;3.92;2.50;;;22.90;95.50;;;;;;5032952;28;20045;-79
2021/08/21 10:23:53;;;;;;;4.57;2.85;;;23.00;95.50;;;;;;5033220;28;20091;-79
2021/08/21 10:26:29;;;;;;;4.47;2.83;;;23.10;95.30;;;;;;5033532;28;20556;-77
2021/08/21 10:29:00;;;;;;;4.88;3.00;;;23.20;95.40;;;;;;5033692;28;20140;-79
2021/08/21 10:31:35;;;;;;;5.57;2.90;;;23.20;95.10;;;;;;5033510;28;20057;-78
2021/08/21 10:34:04;;;;;;;5.47;2.80;;;23.30;95.10;;;;;;5033267;28;20483;-79
2021/08/21 10:36:48;;;;;;;6.78;2.80;;;23.30;95.30;;;;;;5033009;28;20144;-75
2021/08/21 10:39:26;;;;;;;4.15;2.47;;;23.40;94.90;;;;;;5033386;28;20045;-79
2021/08/21 10:41:55;;;;;;;4.75;2.63;;;23.50;94.70;;;;;;5033235;28;20051;-81
2021/08/21 10:44:44;;;;;;;6.80;3.17;;;23.60;94.60;;;;;;5033106;28;20045;-78
2021/08/21 10:47:38;;;;;;;3.83;2.33;;;23.60;94.60;;;;;;5033178;28;20072;-80
2021/08/21 10:50:35;;;;;;;4.70;2.70;;;23.70;94.40;;;;;;5032238;28;20052;-79
2021/08/21 10:53:05;;;;;;;5.28;2.90;;;23.80;94.30;;;;;;5032676;28;20445;-80
2021/08/21 10:55:44;;;;;;;4.85;2.90;;;23.80;94.00;;;;;;5033100;28;20513;-78
2021/08/21 10:58:15;;;;;;;5.88;3.60;;;24.00;94.00;;;;;;5033248;28;20054;-77
2021/08/21 11:01:00;;;;;;;4.40;2.90;;;24.00;93.80;;;;;;5031466;28;20051;-80
2021/08/21 11:03:51;;;;;;;4.70;3.20;;;24.00;93.70;;;;;;5031812;28;20498;-79
2021/08/21 11:06:34;;;;;;;6.40;4.07;;;24.10;93.40;;;;;;5032858;28;20069;-80
2021/08/21 11:09:11;;;;;;;5.65;3.67;;;24.20;93.40;;;;;;5032822;28;20467;-79
2021/08/21 11:11:44;;;;;;;6.60;3.80;;;24.30;93.50;;;;;;5032418;28;20100;-77
2021/08/21 11:14:35;;;;;;;5.28;3.40;;;24.40;93.20;;;;;;5032491;28;20044;-80
2021/08/21 11:17:05;;;;;;;5.18;3.20;;;24.50;92.90;;;;;;5031843;28;20048;-79
2021/08/21 11:19:46;;;;;;;4.55;3.00;;;24.50;92.90;;;;;;5029554;28;20132;-77
2021/08/21 11:22:30;;;;;;;4.57;3.00;;;24.60;92.70;;;;;;5032118;28;20045;-75
2021/08/21 11:25:25;;;;;;;6.90;3.33;;;24.70;92.50;;;;;;5030009;28;20061;-77
2021/08/21 11:28:05;;;;;;;5.85;3.30;;;24.80;92.40;;;;;;5029294;28;20049;-77
2021/08/21 11:30:33;;;;;;;4.45;2.83;;;24.80;92.30;;;;;;5025680;28;20060;-74
2021/08/21 11:33:15;;;;;;;5.88;3.00;;;24.90;92.10;;;;;;5030064;28;20050;-77
2021/08/21 11:35:52;;;;;;;4.22;2.90;;;25.00;92.00;;;;;;5030050;28;20047;-79
2021/08/21 11:38:27;;;;;;;3.83;2.58;;;25.00;92.10;;;;;;5030289;28;20057;-77
2021/08/21 11:40:57;;;;;;;4.30;2.47;;;25.10;91.90;;;;;;5029675;28;20045;-76
2021/08/21 11:43:26;;;;;;;5.47;3.28;;;25.20;91.70;;;;;;5030432;28;20046;-78
2021/08/21 11:45:54;;;;;;;5.25;3.10;;;25.30;91.90;;;;;;5029177;28;20132;-78
2021/08/21 11:48:27;;;;;;;4.88;3.15;;;25.40;91.90;;;;;;5028311;28;20493;-77
2021/08/21 11:50:54;;;;;;;4.72;2.92;;;25.50;91.80;;;;;;5030185;28;20041;-78
2021/08/21 11:53:23;;;;;;;4.50;2.85;;;25.60;91.70;;;;;;5029476;28;20041;-79
2021/08/21 11:55:53;;;;;;;4.70;2.83;;;25.70;91.30;;;;;;5029962;28;20475;-80
2021/08/21 11:58:29;;;;;;;4.88;2.85;;;25.70;91.20;;;;;;5030409;28;20055;-78
2021/08/21 12:01:03;;;;;;;4.20;2.75;;;25.80;91.20;;;;;;5027693;28;20572;-76
2021/08/21 12:04:21;;;;;;;3.70;2.40;;;25.90;91.20;;;;;;5029864;28;20053;-77
2021/08/21 12:06:23;;;;;;;4.07;2.67;;;26.10;91.00;;;;;;5033194;28;20379;-76
2021/08/21 12:08:51;;;;;;;5.28;3.30;;;26.20;90.90;;;;;;5033690;28;20053;-78
2021/08/21 12:11:18;;;;;;;5.00;3.10;;;26.30;90.70;;;;;;5033815;28;20065;-78
2021/08/21 12:13:45;;;;;;;6.15;3.70;;;26.40;90.50;;;;;;5033375;28;20478;-79
2021/08/21 12:16:14;;;;;;;6.18;3.50;;;26.50;90.00;;;;;;5033326;28;20410;-78
2021/08/21 12:18:46;;;;;;;5.78;3.22;;;26.60;88.70;;;;;;5033514;28;20054;-77
2021/08/21 12:21:20;;;;;;;6.13;3.80;;;26.70;88.20;;;;;;5033611;28;20418;-77
2021/08/21 12:23:50;;;;;;;6.25;3.85;;;26.80;84.90;;;;;;5033686;28;20045;-78
2021/08/21 12:26:32;;;;;;;6.43;3.65;;;26.80;85.00;;;;;;5033531;28;20059;-79
2021/08/21 12:28:59;;;;;;;4.88;3.35;;;26.90;84.30;;;;;;5035444;28;20049;-79
2021/08/21 12:31:35;;;;;;;4.88;3.30;;;27.00;83.80;;;;;;5031726;28;20140;-76
2021/08/21 12:34:05;;;;;;;5.90;3.42;;;27.00;83.00;;;;;;5032371;28;20049;-78
2021/08/21 12:36:39;;;;;;;5.28;3.38;;;27.20;83.00;;;;;;5032189;28;20055;-76
2021/08/21 12:39:09;;;;;;;5.85;3.90;;;27.30;83.20;;;;;;5032355;28;20562;-78
2021/08/21 12:41:48;;;;;;;6.47;3.75;;;27.40;80.30;;;;;;5031987;28;20452;-77
2021/08/21 12:44:17;;;;;;;5.43;3.63;;;27.50;80.10;;;;;;5032102;28;20049;-78
2021/08/21 12:46:54;;;;;;;6.13;3.63;;;27.50;78.60;;;;;;5031935;28;20042;-79
2021/08/21 12:49:42;;;;;;;4.70;3.20;;;27.60;78.30;;;;;;5032142;28;20045;-78
2021/08/21 12:52:14;;;;;;;6.05;3.95;;;27.70;77.40;;;;;;5032393;28;20553;-79
2021/08/21 12:54:43;;;;;;;5.25;3.60;;;27.90;76.50;;;;;;5032003;28;20461;-79
2021/08/21 12:57:15;;;;;;;4.90;2.90;;;28.00;77.30;;;;;;5031672;28;20513;-76
2021/08/21 12:59:45;;;;;;;4.20;2.80;;;28.10;77.50;;;;;;5031817;28;20133;-80
2021/08/21 13:02:15;;;;;;;5.55;2.75;;;28.20;77.70;;;;;;5031923;28;20136;-76
2021/08/21 13:04:58;;;;;;;6.88;3.42;;;28.40;76.90;;;;;;5031825;28;20132;-77
2021/08/21 13:07:42;;;;;;;4.72;2.80;;;28.50;75.40;;;;;;5031845;28;20049;-79
2021/08/21 13:10:12;;;;;;;5.07;3.30;;;28.70;73.60;;;;;;5031688;28;20490;-77